This is the latest recevied weather packets stored in our database for station/object SV9TNF-1. If no packets are shown the sender has not sent any weather packets the latest 10 day(s).
| Time | Temp. | Humidity | Pressure | Rain* | Wind** | Luminosity | Snow |
|---|---|---|---|---|---|---|---|
| 1778238385 | 24.44° C | 61% | 1008.8 hPa | 0 mm | 2.68 m/s, 329° | - | - |
| 1778238085 | 23.89° C | 64% | 1008.8 hPa | 0 mm | 4.92 m/s, 91° | - | - |
| 1778237785 | 23.33° C | 63% | 1008.1 hPa | 0 mm | 6.71 m/s, 315° | - | - |
| 1778237484 | 23.89° C | 61% | 1008.1 hPa | 0 mm | 4.92 m/s, 340° | - | - |
| 1778237184 | 23.33° C | 62% | 1008.1 hPa | 0 mm | 1.34 m/s, 82° | - | - |
| 1778236884 | 23.33° C | 64% | 1008.1 hPa | 0 mm | 3.13 m/s, 76° | - | - |
| 1778236584 | 22.78° C | 65% | 1008.1 hPa | 0 mm | 3.13 m/s, 116° | - | - |
| 1778236284 | 22.78° C | 63% | 1007.8 hPa | 0 mm | 12.52 m/s, 355° | - | - |
| 1778235984 | 23.89° C | 60% | 1007.8 hPa | 0 mm | 8.05 m/s, 342° | - | - |
| 1778235684 | 24.44° C | 51% | 1007.8 hPa | 0 mm | 0.89 m/s, 139° | - | - |
| 1778235384 | 24.44° C | 47% | 1007.8 hPa | 0 mm | 1.79 m/s, 124° | - | - |
| 1778235084 | 24.44° C | 46% | 1008.1 hPa | 0 mm | 0 m/s | - | - |
| 1778234784 | 24.44° C | 46% | 1008.1 hPa | 0 mm | 0.89 m/s, 138° | - | - |
| 1778234484 | 23.89° C | 47% | 1008.1 hPa | 0 mm | 5.36 m/s, 230° | - | - |
| 1778234183 | 23.89° C | 47% | 1007.8 hPa | 0 mm | 2.68 m/s, 199° | - | - |
| 1778233884 | 23.33° C | 44% | 1007.8 hPa | 0 mm | 0 m/s | - | - |
| 1778233583 | 23.33° C | 54% | 1008.5 hPa | 0 mm | 0 m/s | - | - |
| 1778233284 | 23.33° C | 53% | 1008.5 hPa | 0 mm | 8.05 m/s, 298° | - | - |
| 1778232984 | 23.33° C | 48% | 1008.5 hPa | 0 mm | 0.89 m/s, 157° | - | - |
| 1778232683 | 23.33° C | 51% | 1008.1 hPa | 0 mm | 4.92 m/s, 178° | - | - |
| 1778232383 | 23.33° C | 50% | 1008.1 hPa | 0 mm | 0.89 m/s, 146° | - | - |
| 1778232083 | 23.33° C | 52% | 1008.5 hPa | 0 mm | 2.68 m/s, 130° | - | - |
| 1778231783 | 22.78° C | 55% | 1008.5 hPa | 0 mm | 4.47 m/s, 189° | - | - |
| 1778231482 | 23.33° C | 55% | 1008.5 hPa | 0 mm | 1.79 m/s, 142° | - | - |
| 1778231182 | 22.78° C | 57% | 1008.5 hPa | 0 mm | 2.68 m/s, 161° | - | - |
* Rain latest hour (hover to see other rain measurements)
** Current wind speed in m/s (hover to see current wind gust speed)